createdAt,value
2019-03-17T00:00:58.926Z,12.13
2019-03-17T00:02:52.329Z,12.24
2019-03-17T00:03:52.337Z,12.14
2019-03-17T00:05:45.236Z,12.23
2019-03-17T00:06:45.251Z,12.17
2019-03-17T00:08:38.160Z,12.23
2019-03-17T00:09:38.166Z,12.27
2019-03-17T00:11:31.067Z,12.19
2019-03-17T00:12:31.654Z,12.23
2019-03-17T00:14:23.990Z,12.20
2019-03-17T00:15:23.995Z,12.27
2019-03-17T00:17:16.897Z,12.16
2019-03-17T00:18:16.909Z,12.19
2019-03-17T00:20:09.819Z,12.19
2019-03-17T00:21:09.824Z,12.10
2019-03-17T00:23:03.227Z,12.23
2019-03-17T00:24:03.235Z,12.20
2019-03-17T00:25:56.137Z,12.13
2019-03-17T00:26:56.150Z,12.24
2019-03-17T00:28:49.060Z,12.29
2019-03-17T00:29:49.078Z,12.24
2019-03-17T00:31:42.462Z,12.13
2019-03-17T00:32:42.474Z,12.27
2019-03-17T00:34:44.068Z,12.24
2019-03-17T00:35:35.395Z,12.27
2019-03-17T00:37:28.298Z,12.23
2019-03-17T00:38:28.310Z,12.12
2019-03-17T00:40:21.219Z,12.23
2019-03-17T00:41:21.222Z,12.14
2019-03-17T00:43:14.125Z,12.17
2019-03-17T00:44:14.139Z,12.14
2019-03-17T00:46:07.046Z,12.24
2019-03-17T00:47:07.051Z,12.28
2019-03-17T00:48:59.959Z,12.20
2019-03-17T00:49:59.964Z,12.23
2019-03-17T00:51:52.907Z,12.16
2019-03-17T00:52:52.880Z,12.23
2019-03-17T00:54:45.790Z,12.13
2019-03-17T00:55:45.797Z,12.13
2019-03-17T00:57:38.700Z,12.21
2019-03-17T00:58:38.715Z,12.19
2019-03-17T01:00:31.622Z,12.13
2019-03-17T01:01:31.627Z,12.16
2019-03-17T01:03:25.023Z,12.16
2019-03-17T01:04:25.037Z,12.12
2019-03-17T01:06:18.439Z,12.19
2019-03-17T01:07:18.446Z,12.21
2019-03-17T01:09:11.354Z,12.12
2019-03-17T01:10:11.359Z,12.19
2019-03-17T01:12:04.267Z,12.23
2019-03-17T01:13:04.280Z,12.24
2019-03-17T01:14:57.185Z,12.13
2019-03-17T01:15:57.191Z,12.17
2019-03-17T01:17:50.092Z,12.19
2019-03-17T01:18:50.106Z,12.28
2019-03-17T01:20:43.011Z,12.24
2019-03-17T01:21:43.019Z,12.20
2019-03-17T01:23:35.926Z,12.14
2019-03-17T01:24:35.935Z,12.19
2019-03-17T01:26:29.327Z,12.28
2019-03-17T01:27:29.345Z,12.20
2019-03-17T01:29:22.256Z,12.21
2019-03-17T01:30:22.259Z,12.21
2019-03-17T01:32:15.160Z,12.27
2019-03-17T01:33:15.171Z,12.19
2019-03-17T01:35:09.493Z,12.21
2019-03-17T01:36:08.148Z,12.27
2019-03-17T01:38:00.986Z,12.17
2019-03-17T01:39:01.001Z,12.17
2019-03-17T01:40:54.402Z,12.14
2019-03-17T01:41:54.410Z,12.12
2019-03-17T01:43:47.813Z,12.04
2019-03-17T01:44:47.819Z,12.07
2019-03-17T01:46:41.718Z,12.09
2019-03-17T01:47:41.730Z,11.98
2019-03-17T01:49:34.640Z,11.94
2019-03-17T01:50:34.644Z,11.91
2019-03-17T01:52:27.546Z,11.85
2019-03-17T01:53:27.562Z,11.88
2019-03-17T01:55:20.468Z,11.83
2019-03-17T01:56:20.471Z,11.79
2019-03-17T01:58:13.377Z,11.73
2019-03-17T01:59:13.386Z,11.69
2019-03-17T02:01:06.303Z,11.60
2019-03-17T02:02:06.301Z,11.70
2019-03-17T02:03:59.207Z,11.62
2019-03-17T02:04:59.212Z,11.58
2019-03-17T02:06:52.114Z,11.54
2019-03-17T02:07:52.125Z,11.55
2019-03-17T02:09:45.034Z,11.52
2019-03-17T02:10:45.040Z,11.49
2019-03-17T02:12:39.077Z,11.57
2019-03-17T02:13:39.089Z,11.58
2019-03-17T02:15:31.998Z,11.54
2019-03-17T02:16:32.004Z,11.46
2019-03-17T02:18:24.901Z,11.40
2019-03-17T02:19:24.915Z,11.43
2019-03-17T02:21:17.821Z,11.42
2019-03-17T02:22:17.827Z,11.52
2019-03-17T02:24:10.742Z,11.43
2019-03-17T02:25:10.739Z,11.46
2019-03-17T02:27:03.643Z,11.47
2019-03-17T02:28:03.655Z,11.47
2019-03-17T02:29:56.566Z,11.47
2019-03-17T02:30:56.568Z,11.55
2019-03-17T02:32:49.470Z,11.54
2019-03-17T02:33:49.482Z,11.52
2019-03-17T02:35:42.450Z,11.62
2019-03-17T02:36:42.394Z,11.65
2019-03-17T02:38:35.299Z,11.67
2019-03-17T02:39:35.310Z,11.64
2019-03-17T02:41:28.219Z,11.73
2019-03-17T02:42:28.229Z,11.73
2019-03-17T02:44:21.130Z,11.78
2019-03-17T02:45:21.135Z,11.83
2019-03-17T02:47:14.532Z,11.85
2019-03-17T02:48:14.544Z,11.79
2019-03-17T02:50:07.453Z,11.91
2019-03-17T02:51:07.460Z,11.86
2019-03-17T02:53:00.803Z,11.98
2019-03-17T02:54:00.377Z,11.90
2019-03-17T02:55:53.283Z,11.95
2019-03-17T02:56:53.284Z,11.94
2019-03-17T02:58:46.184Z,11.88
2019-03-17T02:59:46.204Z,11.96
2019-03-17T03:01:39.107Z,11.99
2019-03-17T03:02:39.116Z,11.95
2019-03-17T03:04:32.025Z,11.98
2019-03-17T03:05:32.030Z,11.99
2019-03-17T03:07:24.934Z,11.95
2019-03-17T03:08:24.942Z,11.99
2019-03-17T03:10:17.854Z,11.95
2019-03-17T03:11:17.862Z,11.98
2019-03-17T03:13:10.760Z,11.98
2019-03-17T03:14:10.771Z,12.04
2019-03-17T03:16:05.793Z,12.01
2019-03-17T03:17:03.685Z,11.95
2019-03-17T03:18:56.589Z,11.98
2019-03-17T03:19:56.604Z,12.02
2019-03-17T03:21:49.508Z,12.01
2019-03-17T03:22:49.515Z,11.86
2019-03-17T03:24:42.422Z,11.96
2019-03-17T03:25:42.430Z,11.90
2019-03-17T03:27:35.330Z,11.90
2019-03-17T03:28:35.342Z,11.86
2019-03-17T03:30:28.265Z,11.88
2019-03-17T03:31:28.258Z,11.98
2019-03-17T03:33:21.160Z,11.90
2019-03-17T03:34:21.181Z,11.91
2019-03-17T03:36:14.573Z,11.95
2019-03-17T03:37:14.582Z,11.94
2019-03-17T03:39:07.482Z,11.95
2019-03-17T03:40:07.492Z,11.85
2019-03-17T03:42:00.643Z,11.95
2019-03-17T03:43:00.526Z,11.98
2019-03-17T03:44:53.318Z,11.85
2019-03-17T03:45:53.321Z,11.88
2019-03-17T03:47:46.225Z,11.95
2019-03-17T03:48:46.235Z,11.99
2019-03-17T03:50:39.142Z,11.99
2019-03-17T03:51:39.149Z,11.96
2019-03-17T03:53:32.050Z,11.98
2019-03-17T03:54:32.069Z,11.99
2019-03-17T03:56:25.469Z,12.07
2019-03-17T03:57:25.475Z,12.02
2019-03-17T03:59:18.377Z,12.16
2019-03-17T04:00:18.388Z,12.12
2019-03-17T04:02:12.791Z,12.10
2019-03-17T04:03:12.796Z,12.12
2019-03-17T04:05:05.711Z,12.07
2019-03-17T04:06:05.712Z,12.12
2019-03-17T04:07:58.619Z,12.13
2019-03-17T04:08:58.633Z,12.12
2019-03-17T04:10:51.538Z,12.13
2019-03-17T04:11:51.551Z,12.10
2019-03-17T04:13:44.447Z,12.14
2019-03-17T04:14:44.458Z,12.12
2019-03-17T04:16:37.368Z,12.12
2019-03-17T04:17:37.375Z,12.02
2019-03-17T04:19:30.280Z,12.07
2019-03-17T04:20:30.290Z,12.19
2019-03-17T04:22:23.202Z,12.14
2019-03-17T04:23:23.251Z,12.09
2019-03-17T04:25:16.143Z,12.05
2019-03-17T04:26:16.121Z,12.14
2019-03-17T04:28:09.024Z,12.09
2019-03-17T04:29:09.039Z,12.12
2019-03-17T04:31:01.949Z,12.09
2019-03-17T04:32:01.957Z,11.99
2019-03-17T04:33:54.853Z,11.98
2019-03-17T04:34:54.865Z,11.99
2019-03-17T04:36:47.775Z,11.95
2019-03-17T04:37:47.782Z,11.86
2019-03-17T04:39:40.682Z,11.85
2019-03-17T04:40:40.692Z,11.86
2019-03-17T04:42:33.600Z,11.86
2019-03-17T04:43:33.607Z,11.90
2019-03-17T04:45:26.517Z,11.86
2019-03-17T04:46:26.520Z,11.86
2019-03-17T04:48:19.421Z,11.86
2019-03-17T04:49:19.435Z,11.79
2019-03-17T04:51:12.849Z,11.80
2019-03-17T04:52:12.856Z,11.72
2019-03-17T04:54:05.796Z,11.73
2019-03-17T04:55:05.768Z,11.82
2019-03-17T04:56:58.678Z,11.76
2019-03-17T04:57:58.685Z,11.72
2019-03-17T04:59:51.584Z,11.72
2019-03-17T05:00:51.595Z,11.76
2019-03-17T05:02:44.506Z,11.82
2019-03-17T05:03:44.510Z,11.88
2019-03-17T05:05:37.423Z,11.85
2019-03-17T05:06:37.430Z,11.88
2019-03-17T05:08:30.329Z,11.86
2019-03-17T05:09:30.342Z,11.88
2019-03-17T05:11:23.251Z,11.91
2019-03-17T05:12:23.257Z,11.85
2019-03-17T05:14:16.160Z,11.91
2019-03-17T05:15:16.172Z,11.86
2019-03-17T05:17:09.084Z,11.82
2019-03-17T05:18:09.091Z,11.76
2019-03-17T05:20:02.094Z,11.79
2019-03-17T05:21:02.006Z,11.72
2019-03-17T05:22:54.905Z,11.57
2019-03-17T05:23:54.917Z,11.43
2019-03-17T05:25:47.828Z,11.43
2019-03-17T05:26:47.834Z,11.47
2019-03-17T05:28:40.738Z,11.44
2019-03-17T05:29:40.749Z,11.47
2019-03-17T05:31:33.657Z,11.40
2019-03-17T05:32:33.663Z,11.33
2019-03-17T05:34:26.569Z,11.39
2019-03-17T05:35:26.578Z,11.33
2019-03-17T05:37:19.490Z,11.32
2019-03-17T05:38:19.496Z,11.27
2019-03-17T05:40:13.396Z,11.25
2019-03-17T05:41:13.401Z,11.33
2019-03-17T05:43:06.322Z,11.24
2019-03-17T05:44:06.337Z,11.33
2019-03-17T05:45:59.225Z,11.25
2019-03-17T05:46:59.230Z,11.24
2019-03-17T05:48:52.129Z,11.21
2019-03-17T05:49:52.145Z,11.15
2019-03-17T05:51:45.051Z,11.09
2019-03-17T05:52:45.060Z,11.15
2019-03-17T05:54:37.977Z,11.15
2019-03-17T05:55:37.976Z,11.09
2019-03-17T05:57:30.882Z,11.07
2019-03-17T05:58:30.890Z,10.99
2019-03-17T06:00:23.796Z,11.00
2019-03-17T06:01:23.800Z,11.00
2019-03-17T06:03:16.702Z,11.03
2019-03-17T06:04:16.712Z,11.02
2019-03-17T06:06:09.624Z,10.96
2019-03-17T06:07:18.605Z,11.00
2019-03-17T06:09:02.532Z,10.94
2019-03-17T06:10:02.542Z,10.84
2019-03-17T06:11:55.449Z,10.88
2019-03-17T06:12:55.455Z,10.97
2019-03-17T06:14:48.360Z,10.84
2019-03-17T06:15:48.375Z,10.88
2019-03-17T06:17:41.284Z,10.81
2019-03-17T06:18:41.289Z,10.79
2019-03-17T06:20:34.201Z,10.86
2019-03-17T06:21:34.206Z,10.78
2019-03-17T06:23:27.104Z,10.78
2019-03-17T06:24:27.116Z,10.78
2019-03-17T06:26:20.020Z,10.84
2019-03-17T06:27:20.030Z,10.74
2019-03-17T06:29:13.422Z,10.76
2019-03-17T06:30:13.436Z,10.81
2019-03-17T06:32:06.344Z,10.70
2019-03-17T06:33:06.349Z,10.81
2019-03-17T06:34:59.261Z,10.71
2019-03-17T06:35:59.263Z,10.70
2019-03-17T06:37:52.167Z,10.71
2019-03-17T06:38:52.172Z,10.63
2019-03-17T06:40:45.089Z,10.63
2019-03-17T06:41:45.088Z,10.64
2019-03-17T06:43:37.991Z,10.53
2019-03-17T06:44:38.000Z,10.56
2019-03-17T06:46:30.907Z,10.52
2019-03-17T06:47:30.910Z,10.59
2019-03-17T06:49:23.814Z,10.48
2019-03-17T06:50:23.896Z,10.63
2019-03-17T06:52:16.729Z,10.67
2019-03-17T06:53:16.739Z,10.63
2019-03-17T06:55:09.637Z,10.66
2019-03-17T06:56:09.649Z,10.55
2019-03-17T06:58:02.560Z,10.59
2019-03-17T06:59:02.564Z,10.59
2019-03-17T07:00:55.470Z,10.56
2019-03-17T07:01:55.475Z,10.53
2019-03-17T07:03:48.376Z,10.63
2019-03-17T07:04:48.389Z,10.63
2019-03-17T07:06:41.296Z,10.55
2019-03-17T07:07:44.459Z,10.56
2019-03-17T07:09:34.201Z,10.44
2019-03-17T07:10:34.213Z,10.55
2019-03-17T07:12:27.122Z,10.53
2019-03-17T07:13:27.126Z,10.55
2019-03-17T07:15:20.044Z,10.56
2019-03-17T07:16:20.037Z,10.60
2019-03-17T07:18:12.947Z,10.63
2019-03-17T07:19:12.949Z,10.63
2019-03-17T07:21:06.349Z,10.53
2019-03-17T07:22:06.356Z,10.52
2019-03-17T07:23:59.259Z,10.56
2019-03-17T07:24:59.271Z,10.64
2019-03-17T07:26:52.178Z,10.51
2019-03-17T07:27:52.185Z,10.48
2019-03-17T07:29:45.082Z,10.59
2019-03-17T07:30:45.095Z,10.53
2019-03-17T07:32:38.003Z,10.53
2019-03-17T07:33:38.010Z,10.42
2019-03-17T07:35:30.909Z,10.47
2019-03-17T07:36:30.919Z,10.48
2019-03-17T07:38:23.833Z,10.40
2019-03-17T07:39:23.837Z,10.42
2019-03-17T07:41:16.743Z,10.29
2019-03-17T07:42:16.749Z,10.38
2019-03-17T07:44:09.647Z,10.32
2019-03-17T07:45:09.665Z,10.29
2019-03-17T07:47:02.566Z,10.33
2019-03-17T07:48:02.571Z,10.29
2019-03-17T07:49:55.473Z,10.27
2019-03-17T07:50:55.486Z,10.36
2019-03-17T07:52:48.389Z,10.34
2019-03-17T07:53:48.397Z,10.27
2019-03-17T07:55:41.295Z,10.30
2019-03-17T07:56:41.310Z,10.33
2019-03-17T07:58:34.214Z,10.25
2019-03-17T07:59:34.218Z,10.27
2019-03-17T08:01:27.126Z,10.30
2019-03-17T08:02:27.131Z,10.27
2019-03-17T08:04:20.041Z,10.26
2019-03-17T08:05:20.053Z,10.32
2019-03-17T08:07:12.996Z,10.14
2019-03-17T08:08:13.001Z,10.11
2019-03-17T08:10:05.998Z,9.81
2019-03-17T08:11:05.911Z,9.64
2019-03-17T08:12:59.313Z,9.26
2019-03-17T08:13:59.318Z,9.08
2019-03-17T08:15:52.235Z,8.68
2019-03-17T08:16:52.248Z,8.70
2019-03-17T08:18:45.174Z,8.45
2019-03-17T08:19:45.178Z,8.40
2019-03-17T08:21:38.086Z,8.30
2019-03-17T08:22:38.099Z,8.40
2019-03-17T08:24:31.490Z,8.25
2019-03-17T08:25:31.502Z,8.22
2019-03-17T08:27:24.413Z,8.22
2019-03-17T08:28:24.415Z,8.23
2019-03-17T08:30:17.327Z,8.15
2019-03-17T08:31:17.339Z,8.26
2019-03-17T08:33:10.230Z,8.44
2019-03-17T08:34:10.231Z,8.48
2019-03-17T08:36:03.131Z,8.73
2019-03-17T08:37:03.142Z,8.70
2019-03-17T08:38:56.048Z,8.81
2019-03-17T08:39:56.052Z,8.94
2019-03-17T08:41:48.963Z,8.91
2019-03-17T08:42:48.967Z,9.01
2019-03-17T08:44:41.868Z,9.08
2019-03-17T08:45:41.879Z,9.04
2019-03-17T08:47:34.788Z,9.13
2019-03-17T08:48:34.793Z,9.15
2019-03-17T08:50:27.694Z,9.24
2019-03-17T08:51:27.796Z,9.23
2019-03-17T08:53:20.613Z,9.23
2019-03-17T08:54:20.621Z,9.21
2019-03-17T08:56:13.523Z,9.24
2019-03-17T08:57:13.530Z,9.28
2019-03-17T08:59:06.931Z,9.32
2019-03-17T09:00:06.935Z,9.26
2019-03-17T09:01:59.851Z,9.26
2019-03-17T09:02:59.847Z,9.39
2019-03-17T09:04:52.960Z,9.54
2019-03-17T09:05:52.762Z,9.57
2019-03-17T09:07:46.183Z,9.46
2019-03-17T09:08:46.178Z,9.46
2019-03-17T09:10:39.076Z,9.51
2019-03-17T09:11:39.088Z,9.57
2019-03-17T09:13:32.065Z,9.61
2019-03-17T09:14:31.999Z,9.58
2019-03-17T09:16:24.915Z,9.68
2019-03-17T09:17:24.914Z,9.81
2019-03-17T09:19:17.853Z,9.94
2019-03-17T09:20:17.830Z,9.91
2019-03-17T09:22:10.766Z,10.04
2019-03-17T09:23:10.745Z,10.14
2019-03-17T09:25:03.652Z,10.26
2019-03-17T09:26:03.664Z,10.38
2019-03-17T09:27:56.573Z,10.32
2019-03-17T09:28:56.578Z,10.29
2019-03-17T09:30:49.481Z,10.23
2019-03-17T09:31:49.499Z,10.26
2019-03-17T09:33:42.405Z,10.25
2019-03-17T09:34:42.408Z,10.30
2019-03-17T09:36:35.378Z,10.36
2019-03-17T09:37:35.359Z,10.47
2019-03-17T09:39:28.285Z,10.61
2019-03-17T09:40:28.398Z,10.60
2019-03-17T09:42:21.259Z,10.59
2019-03-17T09:43:21.210Z,10.82
2019-03-17T09:45:14.117Z,10.85
2019-03-17T09:46:14.180Z,10.92
2019-03-17T09:48:07.060Z,10.89
2019-03-17T09:49:07.044Z,10.89
2019-03-17T09:50:59.951Z,10.96
2019-03-17T09:51:59.962Z,10.94
2019-03-17T09:53:52.876Z,11.02
2019-03-17T09:54:52.882Z,11.06
2019-03-17T09:56:46.073Z,11.24
2019-03-17T09:57:45.805Z,11.19
2019-03-17T09:59:38.709Z,11.19
2019-03-17T10:00:38.721Z,11.25
2019-03-17T10:02:31.635Z,11.46
2019-03-17T10:03:31.638Z,11.36
2019-03-17T10:05:24.549Z,11.43
2019-03-17T10:06:24.561Z,11.43
2019-03-17T10:08:17.492Z,11.54
2019-03-17T10:09:17.498Z,11.54
2019-03-17T10:11:10.821Z,11.51
2019-03-17T10:12:10.416Z,11.44
2019-03-17T10:14:03.337Z,11.47
2019-03-17T10:15:03.333Z,11.51
2019-03-17T10:16:56.732Z,11.61
2019-03-17T10:17:56.751Z,11.49
2019-03-17T10:19:49.664Z,11.49
2019-03-17T10:20:49.667Z,11.51
2019-03-17T10:22:42.580Z,11.49
2019-03-17T10:23:42.719Z,11.54
2019-03-17T10:25:36.048Z,11.60
2019-03-17T10:26:35.501Z,11.51
2019-03-17T10:28:28.918Z,11.55
2019-03-17T10:29:28.926Z,11.49
2019-03-17T10:31:21.834Z,11.44
2019-03-17T10:32:21.849Z,11.36
2019-03-17T10:34:14.788Z,11.42
2019-03-17T10:35:14.769Z,11.43
2019-03-17T10:37:07.672Z,11.52
2019-03-17T10:38:07.687Z,11.52
2019-03-17T10:40:00.609Z,11.49
2019-03-17T10:41:00.601Z,11.62
2019-03-17T10:42:54.113Z,11.62
2019-03-17T10:43:54.120Z,11.69
2019-03-17T10:45:47.028Z,11.78
2019-03-17T10:46:47.041Z,11.73
2019-03-17T10:48:39.954Z,11.75
2019-03-17T10:49:39.961Z,11.83
2019-03-17T10:51:33.448Z,11.76
2019-03-17T10:52:33.512Z,11.73
2019-03-17T10:54:26.784Z,11.60
2019-03-17T10:55:26.793Z,11.58
2019-03-17T10:57:20.208Z,11.42
2019-03-17T10:58:20.209Z,11.32
2019-03-17T11:00:13.426Z,11.07
2019-03-17T11:01:13.153Z,11.07
2019-03-17T11:03:06.048Z,11.17
2019-03-17T11:04:06.049Z,11.17
2019-03-17T11:05:59.448Z,11.14
2019-03-17T11:06:59.461Z,11.09
2019-03-17T11:08:52.867Z,11.10
2019-03-17T11:09:52.873Z,11.06
2019-03-17T11:11:45.780Z,11.03
2019-03-17T11:12:45.859Z,11.11
2019-03-17T11:14:39.394Z,11.10
2019-03-17T11:15:39.407Z,11.04
2019-03-17T11:17:32.317Z,10.96
2019-03-17T11:18:32.320Z,10.88
2019-03-17T11:20:25.718Z,10.84
2019-03-17T11:21:25.731Z,10.74
2019-03-17T11:23:18.643Z,10.60
2019-03-17T11:24:18.867Z,10.67
2019-03-17T11:26:11.556Z,10.63
2019-03-17T11:27:11.570Z,10.71
2019-03-17T11:29:04.975Z,10.73
2019-03-17T11:30:04.987Z,10.76
2019-03-17T11:31:58.378Z,10.76
2019-03-17T11:32:58.393Z,10.64
2019-03-17T11:34:51.379Z,10.53
2019-03-17T11:35:51.308Z,10.59
2019-03-17T11:37:44.221Z,10.64
2019-03-17T11:38:44.229Z,10.60
2019-03-17T11:40:37.129Z,10.66
2019-03-17T11:41:37.169Z,10.61
2019-03-17T11:43:30.054Z,10.68
2019-03-17T11:44:30.061Z,10.78
2019-03-17T11:46:22.963Z,10.81
2019-03-17T11:47:22.975Z,10.82
2019-03-17T11:49:16.381Z,11.00
2019-03-17T11:50:16.405Z,11.04
2019-03-17T11:52:09.290Z,11.04
2019-03-17T11:53:09.309Z,11.03
2019-03-17T11:55:02.216Z,11.00
2019-03-17T11:56:02.225Z,11.00
2019-03-17T11:57:55.656Z,11.07
2019-03-17T11:58:55.665Z,11.03
2019-03-17T12:00:48.571Z,10.97
2019-03-17T12:01:48.585Z,11.03
2019-03-17T12:03:41.991Z,11.14
2019-03-17T12:04:41.994Z,11.35
2019-03-17T12:06:34.903Z,11.43
2019-03-17T12:07:34.914Z,11.54
2019-03-17T12:09:29.276Z,11.78
2019-03-17T12:10:27.831Z,11.86
2019-03-17T12:12:22.229Z,11.96
2019-03-17T12:13:22.243Z,11.98
2019-03-17T12:15:15.156Z,11.86
2019-03-17T12:16:15.162Z,11.76
2019-03-17T12:18:08.073Z,11.54
2019-03-17T12:19:08.082Z,11.47
2019-03-17T12:21:01.502Z,11.03
2019-03-17T12:22:09.097Z,10.74
2019-03-17T12:23:54.404Z,10.56
2019-03-17T12:24:54.412Z,10.27
2019-03-17T12:26:47.315Z,9.93
2019-03-17T12:27:47.327Z,9.75
2019-03-17T12:29:40.238Z,9.79
2019-03-17T12:30:40.244Z,9.86
2019-03-17T12:32:33.144Z,9.87
2019-03-17T12:33:33.158Z,9.90
2019-03-17T12:35:26.075Z,9.86
2019-03-17T12:36:26.070Z,9.72
2019-03-17T12:38:18.983Z,9.79
2019-03-17T12:39:18.985Z,9.76
2019-03-17T12:41:12.379Z,9.79
2019-03-17T12:42:12.397Z,9.87
2019-03-17T12:44:05.303Z,9.89
2019-03-17T12:45:05.311Z,9.96
2019-03-17T12:46:58.709Z,9.94
2019-03-17T12:47:58.726Z,9.91
2019-03-17T12:49:51.630Z,9.93
2019-03-17T12:50:51.631Z,9.94
2019-03-17T12:52:45.039Z,9.97
2019-03-17T12:53:45.052Z,10.05
2019-03-17T12:55:38.453Z,10.22
2019-03-17T12:56:38.461Z,10.25
2019-03-17T12:58:31.867Z,10.32
2019-03-17T12:59:31.873Z,10.36
2019-03-17T13:01:25.269Z,10.45
2019-03-17T13:02:25.284Z,10.56
2019-03-17T13:04:18.702Z,10.59
2019-03-17T13:05:18.693Z,10.61
2019-03-17T13:07:11.596Z,10.79
2019-03-17T13:08:11.609Z,10.85
2019-03-17T13:10:15.121Z,11.03
2019-03-17T13:11:05.021Z,11.02
2019-03-17T13:12:58.421Z,11.06
2019-03-17T13:13:58.434Z,11.14
2019-03-17T13:15:51.839Z,11.35
2019-03-17T13:16:51.844Z,11.49
2019-03-17T13:18:44.783Z,11.79
2019-03-17T13:19:44.758Z,11.86
2019-03-17T13:21:37.664Z,12.02
2019-03-17T13:22:37.677Z,11.94
2019-03-17T13:24:30.593Z,11.86
2019-03-17T13:25:30.599Z,11.79
2019-03-17T13:27:23.503Z,11.88
2019-03-17T13:28:23.514Z,11.86
2019-03-17T13:30:16.427Z,11.95
2019-03-17T13:31:16.433Z,11.86
2019-03-17T13:33:09.340Z,11.98
2019-03-17T13:34:09.360Z,12.05
2019-03-17T13:36:02.279Z,12.09
2019-03-17T13:37:02.274Z,12.14
2019-03-17T13:38:55.188Z,12.07
2019-03-17T13:39:55.193Z,12.07
2019-03-17T13:41:48.118Z,11.98
2019-03-17T13:42:48.142Z,12.10
2019-03-17T13:44:41.064Z,11.95
2019-03-17T13:45:41.057Z,11.85
2019-03-17T13:47:33.964Z,11.58
2019-03-17T13:48:33.977Z,11.43
2019-03-17T13:50:26.891Z,11.07
2019-03-17T13:51:26.896Z,10.97
2019-03-17T13:53:22.722Z,10.63
2019-03-17T13:54:19.817Z,10.45
2019-03-17T13:56:12.726Z,9.68
2019-03-17T13:57:12.751Z,9.36
2019-03-17T13:59:06.608Z,8.65
2019-03-17T14:00:05.649Z,8.36
2019-03-17T14:01:58.550Z,7.97
2019-03-17T14:02:58.565Z,7.75
2019-03-17T14:04:51.474Z,7.64
2019-03-17T14:05:51.479Z,7.71
2019-03-17T14:07:44.378Z,7.79
2019-03-17T14:08:44.388Z,7.75
2019-03-17T14:10:41.225Z,7.97
2019-03-17T14:11:37.304Z,8.12
2019-03-17T14:13:30.201Z,8.30
2019-03-17T14:14:30.211Z,8.36
2019-03-17T14:16:23.115Z,8.55
2019-03-17T14:17:23.121Z,8.66
2019-03-17T14:19:16.030Z,8.74
2019-03-17T14:20:16.036Z,8.65
2019-03-17T14:22:08.938Z,8.86
2019-03-17T14:23:08.953Z,8.98
2019-03-17T14:25:02.349Z,9.15
2019-03-17T14:26:02.354Z,9.23
2019-03-17T14:27:55.262Z,9.38
2019-03-17T14:28:55.270Z,9.48
2019-03-17T14:30:48.671Z,9.51
2019-03-17T14:31:48.674Z,9.56
2019-03-17T14:33:41.592Z,9.64
2019-03-17T14:34:41.604Z,9.64
2019-03-17T14:36:34.515Z,9.84
2019-03-17T14:37:34.519Z,9.86
2019-03-17T14:39:27.468Z,10.04
2019-03-17T14:40:27.428Z,10.18
2019-03-17T14:42:20.334Z,10.41
2019-03-17T14:43:20.345Z,10.40
2019-03-17T14:45:13.255Z,10.42
2019-03-17T14:46:13.266Z,10.52
2019-03-17T14:48:06.167Z,10.63
2019-03-17T14:49:06.179Z,10.60
2019-03-17T14:50:59.084Z,10.59
2019-03-17T14:51:59.089Z,10.64
2019-03-17T14:53:51.988Z,10.61
2019-03-17T14:54:52.001Z,10.82
2019-03-17T14:56:44.910Z,10.64
2019-03-17T14:57:44.918Z,10.61
2019-03-17T14:59:37.848Z,10.67
2019-03-17T15:00:37.850Z,10.63
2019-03-17T15:02:30.755Z,10.60
2019-03-17T15:03:30.769Z,10.71
2019-03-17T15:05:25.301Z,10.73
2019-03-17T15:06:24.174Z,10.85
2019-03-17T15:08:17.080Z,10.85
2019-03-17T15:09:17.092Z,10.78
2019-03-17T15:11:10.493Z,10.78
2019-03-17T15:12:10.501Z,10.64
2019-03-17T15:14:03.393Z,10.59
2019-03-17T15:15:03.414Z,10.56
2019-03-17T15:16:56.327Z,10.63
2019-03-17T15:17:56.427Z,10.66
2019-03-17T15:19:49.241Z,10.85
2019-03-17T15:20:49.245Z,10.92
2019-03-17T15:22:42.219Z,11.02
2019-03-17T15:23:42.158Z,10.94
2019-03-17T15:25:35.068Z,11.09
2019-03-17T15:26:35.083Z,11.17
2019-03-17T15:28:27.976Z,11.06
2019-03-17T15:29:27.986Z,10.94
2019-03-17T15:31:20.895Z,10.91
2019-03-17T15:32:20.906Z,10.81
2019-03-17T15:34:13.803Z,10.97
2019-03-17T15:35:13.820Z,11.03
2019-03-17T15:37:06.748Z,11.17
2019-03-17T15:38:06.741Z,11.11
2019-03-17T15:39:59.642Z,11.10
2019-03-17T15:40:59.643Z,11.00
2019-03-17T15:42:53.039Z,10.84
2019-03-17T15:43:53.051Z,10.91
2019-03-17T15:45:45.968Z,10.89
2019-03-17T15:46:45.975Z,10.84
2019-03-17T15:48:38.873Z,10.63
2019-03-17T15:49:38.877Z,10.53
2019-03-17T15:51:31.795Z,10.42
2019-03-17T15:52:31.798Z,10.42
2019-03-17T15:54:24.799Z,10.26
2019-03-17T15:55:24.709Z,10.29
2019-03-17T15:57:17.620Z,10.18
2019-03-17T15:58:17.626Z,10.20
2019-03-17T16:00:10.537Z,10.23
2019-03-17T16:01:10.561Z,10.11
2019-03-17T16:03:03.443Z,10.08
2019-03-17T16:04:03.455Z,10.05
2019-03-17T16:05:57.404Z,9.91
2019-03-17T16:06:57.409Z,10.07
2019-03-17T16:08:50.313Z,10.02
2019-03-17T16:09:50.326Z,10.09
2019-03-17T16:11:43.231Z,10.20
2019-03-17T16:12:43.239Z,10.33
2019-03-17T16:14:36.176Z,10.32
2019-03-17T16:15:36.153Z,10.38
2019-03-17T16:17:29.061Z,10.30
2019-03-17T16:18:29.068Z,10.29
2019-03-17T16:20:21.978Z,10.25
2019-03-17T16:21:21.982Z,10.23
2019-03-17T16:23:14.886Z,9.99
2019-03-17T16:24:14.911Z,10.01
2019-03-17T16:26:07.806Z,9.96
2019-03-17T16:27:07.809Z,9.91
2019-03-17T16:29:00.708Z,9.99
2019-03-17T16:30:00.720Z,9.87
2019-03-17T16:31:53.628Z,9.83
2019-03-17T16:32:53.632Z,9.83
2019-03-17T16:34:46.541Z,9.51
2019-03-17T16:35:46.635Z,9.50
2019-03-17T16:37:39.456Z,9.40
2019-03-17T16:38:39.459Z,9.40
2019-03-17T16:40:32.434Z,9.33
2019-03-17T16:41:42.859Z,9.33
2019-03-17T16:43:25.269Z,9.17
2019-03-17T16:44:25.356Z,9.11
2019-03-17T16:46:18.205Z,8.94
2019-03-17T16:47:18.193Z,8.86
2019-03-17T16:49:12.085Z,8.89
2019-03-17T16:50:12.103Z,8.79
2019-03-17T16:52:05.497Z,8.66
2019-03-17T16:53:05.502Z,8.79
2019-03-17T16:54:58.404Z,8.68
2019-03-17T16:55:58.412Z,8.70
2019-03-17T16:57:51.324Z,8.68
2019-03-17T16:58:51.327Z,8.71
2019-03-17T17:00:44.726Z,8.71
2019-03-17T17:01:44.738Z,8.68
2019-03-17T17:03:37.638Z,8.68
2019-03-17T17:04:37.639Z,8.65
2019-03-17T17:06:31.045Z,8.68
2019-03-17T17:07:31.047Z,8.63
2019-03-17T17:09:23.959Z,8.71
2019-03-17T17:10:24.036Z,8.76
2019-03-17T17:12:16.876Z,8.74
2019-03-17T17:13:16.879Z,8.71
2019-03-17T17:15:09.794Z,8.76
2019-03-17T17:16:09.797Z,8.77
2019-03-17T17:18:03.198Z,8.83
2019-03-17T17:19:03.209Z,9.01
2019-03-17T17:20:56.118Z,8.96
2019-03-17T17:21:58.557Z,8.96
2019-03-17T17:23:49.099Z,8.87
2019-03-17T17:24:49.029Z,8.91
2019-03-17T17:26:42.935Z,8.96
2019-03-17T17:27:42.938Z,8.98
2019-03-17T17:29:36.356Z,8.98
2019-03-17T17:30:36.353Z,8.98
2019-03-17T17:32:29.272Z,8.98
2019-03-17T17:33:29.264Z,8.98
2019-03-17T17:35:22.174Z,8.94
2019-03-17T17:36:22.174Z,8.96
2019-03-17T17:38:15.072Z,8.86
2019-03-17T17:39:15.089Z,8.86
2019-03-17T17:41:10.976Z,8.86
2019-03-17T17:42:10.167Z,8.81
2019-03-17T17:44:01.388Z,8.61
2019-03-17T17:45:01.398Z,8.66
2019-03-17T17:46:54.304Z,8.79
2019-03-17T17:47:54.363Z,8.73
2019-03-17T17:49:47.210Z,8.77
2019-03-17T17:50:47.321Z,8.83
2019-03-17T17:52:40.126Z,8.81
2019-03-17T17:53:40.138Z,8.77
2019-03-17T17:55:33.038Z,8.89
2019-03-17T17:56:33.039Z,8.89
2019-03-17T17:58:26.434Z,8.80
2019-03-17T17:59:26.452Z,8.92
2019-03-17T18:01:19.852Z,8.76
2019-03-17T18:02:19.853Z,8.76
2019-03-17T18:04:12.751Z,8.94
2019-03-17T18:05:12.763Z,8.84
2019-03-17T18:07:06.163Z,8.95
2019-03-17T18:08:06.251Z,8.96
2019-03-17T18:09:59.553Z,8.95
2019-03-17T18:10:59.575Z,8.91
2019-03-17T18:12:52.993Z,8.87
2019-03-17T18:13:52.978Z,8.94
2019-03-17T18:15:46.383Z,8.87
2019-03-17T18:16:46.387Z,8.80
2019-03-17T18:18:39.827Z,8.74
2019-03-17T18:19:39.795Z,8.71
2019-03-17T18:21:33.198Z,8.74
2019-03-17T18:22:33.205Z,8.79
2019-03-17T18:24:26.593Z,8.65
2019-03-17T18:25:26.607Z,8.71
2019-03-17T18:27:20.006Z,8.66
2019-03-17T18:28:20.017Z,8.68
2019-03-17T18:30:13.412Z,8.68
2019-03-17T18:31:13.669Z,8.63
2019-03-17T18:33:06.830Z,8.61
2019-03-17T18:34:06.835Z,8.61
2019-03-17T18:36:00.463Z,8.55
2019-03-17T18:37:00.238Z,8.65
2019-03-17T18:38:53.640Z,8.65
2019-03-17T18:39:53.648Z,8.56
2019-03-17T18:41:47.123Z,8.55
2019-03-17T18:42:47.136Z,8.48
2019-03-17T18:44:40.442Z,8.53